Time;durP1;ratioP1;P1;durP2;ratioP2;P2;SDS_P1;SDS_P2;PMS_P1;PMS_P2;Temp;Humidity;BMP_temperature;BMP_pressure;BME280_temperature;BME280_humidity;BME280_pressure;Samples;Min_cycle;Max_cycle;Signal;HPM_P1;HPM_P2
2021/08/18 00:00:35;;;;;;;35.33;13.32;;;;;;;10.81;74.00;91071.59;5018146;28;20036;-86
2021/08/18 00:03:16;;;;;;;33.45;14.18;;;;;;;10.74;73.66;91063.53;5034059;28;20112;-85
2021/08/18 00:05:56;;;;;;;32.00;13.43;;;;;;;10.72;74.39;91057.91;5035116;28;20748;-86
2021/08/18 00:08:33;;;;;;;27.58;13.00;;;;;;;10.71;75.46;91057.16;5018756;28;20017;-86
2021/08/18 00:11:08;;;;;;;34.28;14.23;;;;;;;10.73;75.78;91064.63;5033927;28;20083;-86
2021/08/18 00:13:47;;;;;;;33.03;13.63;;;;;;;10.69;75.24;91056.72;5018285;28;20025;-87
2021/08/18 00:16:32;;;;;;;30.02;14.25;;;;;;;10.70;75.83;91067.88;5033062;28;20024;-86
2021/08/18 00:19:09;;;;;;;32.38;13.02;;;;;;;10.70;75.88;91057.47;5031789;28;20033;-87
2021/08/18 00:21:46;;;;;;;30.90;12.68;;;;;;;10.69;76.15;91059.31;4998752;28;20029;-86
2021/08/18 00:24:23;;;;;;;35.53;14.30;;;;;;;10.75;74.13;91062.47;5017930;28;20037;-86
2021/08/18 00:26:56;;;;;;;31.30;13.68;;;;;;;10.85;73.71;91062.06;5018232;28;20473;-86
2021/08/18 00:29:30;;;;;;;30.90;13.85;;;;;;;10.83;73.48;91066.81;5018183;28;20473;-86
2021/08/18 00:32:07;;;;;;;32.17;14.05;;;;;;;10.76;75.46;91066.59;5017885;28;20049;-86
2021/08/18 00:34:44;;;;;;;30.35;13.02;;;;;;;10.75;75.33;91058.03;5001380;28;20025;-87
2021/08/18 00:37:24;;;;;;;31.83;13.40;;;;;;;10.80;76.12;91062.25;5017801;28;20018;-86
2021/08/18 00:39:56;;;;;;;34.17;13.80;;;;;;;10.68;75.83;91049.22;5018512;28;20528;-86
2021/08/18 00:42:38;;;;;;;28.52;13.13;;;;;;;10.66;74.91;91059.19;5018596;28;20026;-86
2021/08/18 00:45:12;;;;;;;27.77;12.63;;;;;;;10.69;76.01;91050.75;5000840;28;20034;-86
2021/08/18 00:47:55;;;;;;;30.92;12.85;;;;;;;10.77;72.42;91052.47;5025829;28;20017;-89
2021/08/18 00:50:38;;;;;;;28.45;12.05;;;;;;;10.73;73.08;91049.00;5012184;28;20025;-86
2021/08/18 00:53:13;;;;;;;32.22;13.43;;;;;;;10.59;75.01;91051.91;5018989;28;20026;-87
2021/08/18 00:55:44;;;;;;;31.63;13.27;;;;;;;10.55;75.05;91039.88;5001957;28;20459;-85
2021/08/18 00:58:26;;;;;;;31.90;13.55;;;;;;;10.53;76.03;91038.34;5001852;28;20033;-85
2021/08/18 01:01:05;;;;;;;38.30;14.40;;;;;;;10.57;75.71;91033.25;5002153;28;20025;-86
2021/08/18 01:03:45;;;;;;;31.92;14.05;;;;;;;10.57;75.84;91035.09;5002730;28;20025;-86
2021/08/18 01:06:24;;;;;;;30.27;12.80;;;;;;;10.56;77.09;91030.94;5018279;28;20037;-86
2021/08/18 01:08:59;;;;;;;26.80;12.93;;;;;;;10.61;75.39;91031.50;5034681;28;20033;-86
2021/08/18 01:11:34;;;;;;;36.50;13.32;;;;;;;10.74;73.75;91032.25;5001492;28;20370;-86
2021/08/18 01:14:13;;;;;;;32.78;13.02;;;;;;;10.59;74.21;91032.91;4985443;28;20021;-86
2021/08/18 01:16:47;;;;;;;31.13;11.95;;;;;;;10.58;74.42;91036.63;5002625;28;20029;-86
2021/08/18 01:19:27;;;;;;;38.25;14.13;;;;;;;10.53;75.56;91035.75;5041094;28;20091;-86
2021/08/18 01:22:08;;;;;;;30.95;13.55;;;;;;;10.73;73.15;91033.34;5057026;28;20400;-86
2021/08/18 01:24:45;;;;;;;32.40;13.07;;;;;;;10.51;74.44;91040.50;5042328;28;20024;-86
2021/08/18 01:27:16;;;;;;;28.13;13.40;;;;;;;10.53;74.17;91046.16;5033039;28;20120;-86
2021/08/18 01:29:56;;;;;;;29.83;12.77;;;;;;;10.50;73.93;91041.59;5017657;28;20029;-88
2021/08/18 01:32:37;;;;;;;28.90;12.05;;;;;;;10.65;73.84;91042.06;5001621;28;20100;-86
2021/08/18 01:35:24;;;;;;;30.58;12.57;;;;;;;10.53;74.82;91030.53;5000078;28;20422;-87
2021/08/18 01:38:01;;;;;;;26.73;11.82;;;;;;;10.56;75.05;91020.53;5002215;28;20564;-86
2021/08/18 01:40:41;;;;;;;25.95;12.13;;;;;;;10.49;75.92;91027.06;4986058;28;20029;-86
2021/08/18 01:43:18;;;;;;;30.17;13.40;;;;;;;10.72;73.22;91021.41;5034291;28;20114;-89
2021/08/18 01:45:51;;;;;;;27.17;11.80;;;;;;;10.60;73.68;91016.19;5055792;28;20033;-86
2021/08/18 01:48:36;;;;;;;28.00;12.23;;;;;;;10.54;74.29;91015.66;5037473;28;20438;-86
2021/08/18 01:51:13;;;;;;;31.10;12.45;;;;;;;10.59;73.53;91022.50;5019631;28;20037;-86
2021/08/18 01:53:55;;;;;;;28.88;11.65;;;;;;;10.56;74.04;91025.75;5053685;28;20512;-86
2021/08/18 01:56:38;;;;;;;27.95;12.38;;;;;;;10.45;75.90;91020.94;5053900;28;20029;-87
2021/08/18 01:59:16;;;;;;;29.50;12.75;;;;;;;10.46;75.25;91030.31;5037506;28;20033;-85
2021/08/18 02:01:55;;;;;;;29.00;12.75;;;;;;;10.46;75.38;91038.13;5036979;28;20512;-86
2021/08/18 02:04:35;;;;;;;32.83;13.43;;;;;;;10.38;77.24;91025.94;5036184;28;20660;-86
2021/08/18 02:07:14;;;;;;;34.83;13.10;;;;;;;10.32;77.93;91031.66;5020780;28;20029;-86
2021/08/18 02:09:53;;;;;;;31.80;12.80;;;;;;;10.30;77.95;91037.22;5034298;28;20033;-86
2021/08/18 02:12:35;;;;;;;32.72;12.73;;;;;;;10.27;77.53;91030.03;5053704;28;20404;-87
2021/08/18 02:15:07;;;;;;;30.33;12.50;;;;;;;10.23;77.50;91029.91;5035984;28;20017;-86
2021/08/18 02:17:43;;;;;;;29.35;13.13;;;;;;;10.21;78.25;91033.91;5019281;28;20032;-86
2021/08/18 02:20:22;;;;;;;40.65;14.02;;;;;;;10.20;79.16;91030.53;5035180;28;20112;-86
2021/08/18 02:23:00;;;;;;;31.15;13.13;;;;;;;10.21;78.61;91026.09;5019910;28;20067;-86
2021/08/18 02:25:38;;;;;;;27.75;12.98;;;;;;;10.13;79.84;91025.09;5019016;28;20017;-86
2021/08/18 02:28:19;;;;;;;33.90;12.85;;;;;;;10.32;77.91;91022.03;5035117;28;20021;-86
2021/08/18 02:30:57;;;;;;;28.63;11.45;;;;;;;10.38;76.49;91020.72;5020250;28;20028;-86
2021/08/18 02:33:31;;;;;;;28.85;12.38;;;;;;;10.19;77.20;91018.59;5020986;28;20021;-86
2021/08/18 02:36:17;;;;;;;25.88;11.68;;;;;;;10.17;77.38;91005.13;5020113;28;20104;-86
2021/08/18 02:38:56;;;;;;;27.70;12.38;;;;;;;10.29;76.99;91018.22;5035455;28;20065;-86
2021/08/18 02:41:36;;;;;;;32.58;12.20;;;;;;;10.20;76.40;91014.91;4999052;28;20022;-86
2021/08/18 02:44:09;;;;;;;26.52;11.45;;;;;;;10.29;76.58;91012.25;5000240;28;20018;-86
2021/08/18 02:46:50;;;;;;;28.02;13.10;;;;;;;10.06;77.19;91012.59;5015216;28;20053;-86
2021/08/18 02:49:28;;;;;;;34.25;12.27;;;;;;;10.07;77.05;91015.97;4983814;28;20505;-85
2021/08/18 02:52:08;;;;;;;29.55;12.82;;;;;;;10.19;77.39;91013.41;5020055;28;20033;-87
2021/08/18 02:54:44;;;;;;;30.80;11.90;;;;;;;10.12;77.36;91017.63;5000088;28;20397;-86
2021/08/18 02:57:25;;;;;;;31.00;12.55;;;;;;;10.23;77.00;91018.72;5032743;28;20072;-86
2021/08/18 03:00:03;;;;;;;29.17;11.75;;;;;;;10.22;76.90;91012.75;5032950;28;20455;-86
2021/08/18 03:02:41;;;;;;;28.42;12.02;;;;;;;10.15;77.16;91017.72;5000537;28;20103;-86
2021/08/18 03:05:22;;;;;;;26.38;10.85;;;;;;;10.16;77.21;91023.69;5032710;28;20087;-86
2021/08/18 03:08:01;;;;;;;29.35;11.57;;;;;;;10.08;77.92;91014.91;5016890;28;20022;-86
2021/08/18 03:10:41;;;;;;;33.17;11.63;;;;;;;10.13;77.86;91013.91;5000363;28;20108;-86
2021/08/18 03:13:14;;;;;;;32.63;11.38;;;;;;;10.25;77.04;91011.34;5032819;28;20036;-86
2021/08/18 03:16:03;;;;;;;25.75;11.10;;;;;;;10.28;77.21;91010.72;5020671;28;20025;-85
2021/08/18 03:18:42;;;;;;;28.95;11.73;;;;;;;10.17;77.90;91006.97;5019739;28;20028;-86
2021/08/18 03:21:22;;;;;;;30.70;12.38;;;;;;;10.19;77.21;91012.63;5028707;28;20040;-85
2021/08/18 03:23:55;;;;;;;28.83;11.95;;;;;;;10.25;76.58;91012.13;5015165;28;20025;-86
2021/08/18 03:26:36;;;;;;;25.25;11.23;;;;;;;10.15;77.81;91004.72;4998176;28;20489;-86
2021/08/18 03:29:15;;;;;;;23.48;10.32;;;;;;;10.23;77.30;91008.31;4999548;28;20041;-86
2021/08/18 03:31:54;;;;;;;29.05;10.85;;;;;;;10.25;77.25;91008.75;4984293;28;20104;-86
2021/08/18 03:34:37;;;;;;;30.35;11.15;;;;;;;10.20;77.61;91016.75;5015796;28;20450;-86
2021/08/18 03:37:16;;;;;;;26.08;11.32;;;;;;;10.16;78.53;91008.06;5021785;28;20067;-86
2021/08/18 03:39:55;;;;;;;26.27;10.82;;;;;;;10.28;77.65;91015.94;5017535;28;20044;-86
2021/08/18 03:42:36;;;;;;;26.20;11.30;;;;;;;10.24;77.94;91009.81;5033929;28;20028;-86
2021/08/18 03:45:12;;;;;;;27.33;11.48;;;;;;;10.17;78.58;91014.78;5019071;28;20021;-86
2021/08/18 03:47:51;;;;;;;31.13;11.77;;;;;;;10.11;78.84;91013.50;5083404;23;20056;-87
2021/08/18 03:50:27;;;;;;;27.63;11.43;;;;;;;10.15;78.72;91022.19;5033332;28;20025;-87
2021/08/18 03:53:11;;;;;;;25.17;11.73;;;;;;;10.05;79.76;91024.09;5034514;28;20045;-88
2021/08/18 03:55:51;;;;;;;26.63;10.90;;;;;;;10.25;78.76;91021.78;5033817;28;20032;-88
2021/08/18 03:58:26;;;;;;;30.13;10.18;;;;;;;10.20;78.91;91019.38;4981921;28;20445;-88
2021/08/18 04:01:06;;;;;;;29.27;11.18;;;;;;;10.14;79.66;91026.63;5013666;28;20026;-88
2021/08/18 04:03:41;;;;;;;31.23;11.57;;;;;;;10.14;80.16;91031.06;4998061;28;20633;-87
2021/08/18 04:06:20;;;;;;;26.23;10.68;;;;;;;10.21;79.49;91031.28;5030306;28;20030;-87
2021/08/18 04:08:59;;;;;;;22.73;9.73;;;;;;;10.18;80.01;91026.75;4994663;28;20041;-88
2021/08/18 04:11:37;;;;;;;24.15;10.90;;;;;;;10.25;79.78;91032.19;4962584;28;20041;-87
2021/08/18 04:14:12;;;;;;;23.88;9.23;;;;;;;10.21;80.33;91026.09;4963287;28;20026;-87
2021/08/18 04:16:56;;;;;;;23.55;9.70;;;;;;;10.18;80.16;91022.31;4979317;28;20105;-88
2021/08/18 04:19:36;;;;;;;20.15;9.25;;;;;;;10.18;80.29;91021.53;5009976;28;20026;-87
2021/08/18 04:22:14;;;;;;;24.33;10.38;;;;;;;10.21;80.22;91032.06;4994687;28;20128;-87
2021/08/18 04:24:50;;;;;;;22.67;10.52;;;;;;;10.27;79.89;91037.84;4994327;28;20080;-87
2021/08/18 04:27:29;;;;;;;22.08;9.98;;;;;;;10.17;80.86;91035.63;5011966;28;20021;-87
2021/08/18 04:30:02;;;;;;;23.77;10.18;;;;;;;9.98;81.36;91029.06;4998390;28;20026;-87
2021/08/18 04:32:36;;;;;;;26.58;10.40;;;;;;;9.94;81.32;91023.00;4998308;28;20105;-88
2021/08/18 04:35:12;;;;;;;24.83;9.23;;;;;;;10.18;80.81;91039.78;5013276;28;20063;-87
2021/08/18 04:37:46;;;;;;;21.58;9.52;;;;;;;10.15;80.94;91037.81;4997966;28;20061;-87
2021/08/18 04:40:21;;;;;;;22.75;8.95;;;;;;;10.09;81.30;91037.25;4997284;28;20033;-87
2021/08/18 04:42:55;;;;;;;22.80;9.30;;;;;;;10.12;81.29;91028.03;4989456;28;20030;-89
2021/08/18 04:45:29;;;;;;;19.88;8.73;;;;;;;10.26;80.86;91042.31;4962094;28;20049;-87
2021/08/18 04:48:02;;;;;;;19.25;8.85;;;;;;;10.24;80.96;91043.69;4978677;28;20494;-88
2021/08/18 04:50:38;;;;;;;23.00;8.85;;;;;;;10.18;81.26;91052.78;4962641;28;20405;-87
2021/08/18 04:53:08;;;;;;;22.23;8.40;;;;;;;10.06;81.73;91041.22;4978469;28;20112;-87
2021/08/18 04:55:45;;;;;;;20.73;8.15;;;;;;;9.90;82.38;91032.53;4994255;28;20029;-88
2021/08/18 04:58:21;;;;;;;18.52;7.75;;;;;;;10.00;82.09;91052.94;4978510;28;20022;-88
2021/08/18 05:00:58;;;;;;;16.35;7.07;;;;;;;10.03;82.05;91041.91;4977654;28;20682;-87
2021/08/18 05:03:39;;;;;;;14.05;6.57;;;;;;;10.06;82.47;91045.69;4978663;28;20026;-86
2021/08/18 05:06:11;;;;;;;15.23;7.30;;;;;;;10.09;82.46;91050.25;4978039;28;20033;-87
2021/08/18 05:08:47;;;;;;;13.93;5.68;;;;;;;10.15;82.14;91054.19;4995377;28;20053;-88
2021/08/18 05:11:20;;;;;;;13.60;5.30;;;;;;;10.16;82.09;91049.75;4997946;28;20564;-87
2021/08/18 05:13:56;;;;;;;15.95;6.32;;;;;;;10.10;82.41;91048.41;4997367;28;20490;-87
2021/08/18 05:16:36;;;;;;;19.88;6.25;;;;;;;10.12;82.86;91052.22;4997526;28;20025;-87
2021/08/18 05:19:14;;;;;;;15.15;5.75;;;;;;;10.18;82.82;91058.00;4997199;28;20084;-87
2021/08/18 05:21:52;;;;;;;12.73;5.43;;;;;;;10.26;82.26;91049.38;5003736;28;20040;-87
2021/08/18 05:24:29;;;;;;;11.95;5.35;;;;;;;10.15;83.67;91053.44;5016702;28;20103;-88
2021/08/18 05:26:59;;;;;;;10.00;4.78;;;;;;;10.20;82.83;91048.00;4984880;28;20030;-87
2021/08/18 05:29:30;;;;;;;9.63;4.15;;;;;;;10.23;82.68;91049.97;5000498;28;20033;-89
2021/08/18 05:32:02;;;;;;;11.32;4.25;;;;;;;10.24;82.45;91057.44;5000263;28;20022;-88
2021/08/18 05:34:36;;;;;;;12.45;4.50;;;;;;;10.21;82.57;91047.69;4999919;28;20025;-87
2021/08/18 05:37:05;;;;;;;9.00;4.05;;;;;;;10.31;82.37;91053.59;4980195;28;20029;-88
2021/08/18 05:39:40;;;;;;;10.73;4.30;;;;;;;10.19;82.95;91054.31;4996435;28;20034;-88
2021/08/18 05:42:17;;;;;;;10.07;3.85;;;;;;;10.29;82.85;91061.75;4996898;28;20026;-87
2021/08/18 05:44:49;;;;;;;10.93;4.72;;;;;;;10.21;82.75;91054.72;4996679;28;20025;-87
2021/08/18 05:47:27;;;;;;;9.13;4.65;;;;;;;10.26;82.72;91055.34;5012723;28;20105;-88
2021/08/18 05:50:07;;;;;;;9.23;4.10;;;;;;;10.38;81.98;91061.66;4995936;28;20394;-87
2021/08/18 05:52:41;;;;;;;10.38;4.40;;;;;;;10.23;83.08;91060.38;5001170;28;20041;-88
2021/08/18 05:55:20;;;;;;;12.38;4.57;;;;;;;10.20;82.88;91053.22;4997112;28;20109;-88
2021/08/18 05:57:51;;;;;;;9.43;4.75;;;;;;;10.34;82.62;91074.56;4997505;28;20040;-87
2021/08/18 06:00:25;;;;;;;10.85;4.60;;;;;;;10.32;82.47;91058.50;5001228;28;20038;-88
2021/08/18 06:03:04;;;;;;;10.73;4.30;;;;;;;10.35;82.34;91068.25;5013942;28;20032;-86
2021/08/18 06:05:36;;;;;;;10.63;3.72;;;;;;;10.35;82.11;91063.03;4986817;28;20088;-87
2021/08/18 06:08:13;;;;;;;10.65;4.40;;;;;;;10.33;82.71;91069.69;4964425;28;20222;-87
2021/08/18 06:10:49;;;;;;;10.35;4.50;;;;;;;10.39;82.09;91069.16;4980620;28;20056;-86
2021/08/18 06:13:22;;;;;;;10.13;4.28;;;;;;;10.27;82.56;91056.84;4963979;28;20121;-87
2021/08/18 06:15:49;;;;;;;194.05;47.05;;;;;;;10.31;83.07;91072.59;4967527;28;20029;-87
2021/08/18 06:18:14;;;;;;;9.80;4.15;;;;;;;10.52;81.87;91073.28;4997769;28;20493;-87
2021/08/18 06:20:41;;;;;;;10.60;4.78;;;;;;;10.41;82.33;91069.56;4998180;28;20172;-87
2021/08/18 06:23:06;;;;;;;9.55;4.18;;;;;;;10.39;83.04;91070.97;4990089;28;20018;-90
2021/08/18 06:25:34;;;;;;;10.25;3.88;;;;;;;10.49;83.12;91075.78;5007449;28;20033;-90
2021/08/18 06:31:10;;;;;;;8.32;3.55;;;;;;;10.80;81.74;91067.47;5012538;28;20034;-86
2021/08/18 06:33:36;;;;;;;8.32;3.58;;;;;;;10.66;82.04;91059.19;4997532;28;20025;-87
2021/08/18 06:36:08;;;;;;;15.93;3.97;;;;;;;10.84;81.61;91068.34;4991487;28;20060;-88
2021/08/18 06:38:34;;;;;;;7.90;3.25;;;;;;;10.76;81.36;91050.97;5013051;28;20036;-88
2021/08/18 06:41:00;;;;;;;6.20;2.78;;;;;;;10.91;80.68;91057.38;4996170;28;20104;-87
2021/08/18 06:43:25;;;;;;;7.78;2.30;;;;;;;10.94;81.46;91067.16;4979488;28;20033;-88
2021/08/18 06:45:51;;;;;;;6.72;2.92;;;;;;;10.85;83.08;91064.66;4980598;28;20021;-87
2021/08/18 06:48:16;;;;;;;6.10;2.75;;;;;;;10.90;82.58;91072.25;5011396;28;20394;-87
2021/08/18 06:50:45;;;;;;;5.00;2.58;;;;;;;11.08;82.76;91069.44;5000507;28;20022;-87
2021/08/18 06:53:12;;;;;;;5.38;2.40;;;;;;;11.18;82.74;91061.94;5010950;28;20032;-87
2021/08/18 06:55:40;;;;;;;6.13;2.20;;;;;;;11.24;82.50;91062.47;4995883;28;20033;-87
2021/08/18 06:58:09;;;;;;;3.50;1.80;;;;;;;11.30;81.52;91074.19;4979987;28;20028;-86
2021/08/18 07:00:36;;;;;;;6.55;2.10;;;;;;;11.42;80.92;91058.53;4980263;28;20055;-87
2021/08/18 07:03:05;;;;;;;4.15;1.77;;;;;;;11.54;80.10;91064.81;5014543;28;20155;-87
2021/08/18 07:05:35;;;;;;;3.50;1.30;;;;;;;11.66;78.76;91067.41;4998498;28;20112;-88
2021/08/18 07:08:03;;;;;;;3.35;1.63;;;;;;;11.64;78.59;91053.94;5014632;28;20489;-85
2021/08/18 07:10:29;;;;;;;3.15;1.40;;;;;;;11.75;78.51;91057.59;5013616;28;20429;-85
2021/08/18 07:12:54;;;;;;;4.25;1.58;;;;;;;11.73;79.37;91070.19;4997818;28;20067;-86
2021/08/18 07:15:21;;;;;;;2.80;1.42;;;;;;;11.80;78.30;91059.19;5013916;28;20026;-86
2021/08/18 07:17:48;;;;;;;3.28;1.48;;;;;;;11.84;79.08;91066.09;4978079;28;20506;-86
2021/08/18 07:20:15;;;;;;;2.85;1.45;;;;;;;11.75;78.13;91078.47;4995336;28;20057;-87
2021/08/18 07:22:43;;;;;;;2.00;1.08;;;;;;;11.76;79.30;91074.78;4978970;28;20084;-87
2021/08/18 07:25:10;;;;;;;3.28;1.40;;;;;;;11.92;79.49;91072.25;5017341;28;20357;-87
2021/08/18 07:27:36;;;;;;;3.10;1.10;;;;;;;11.89;78.05;91062.47;5014282;28;20095;-86
2021/08/18 07:30:02;;;;;;;2.63;1.38;;;;;;;11.82;77.90;91055.19;5013614;28;20481;-87
2021/08/18 07:32:32;;;;;;;2.30;1.20;;;;;;;11.72;78.54;91069.44;5004187;28;20065;-87
2021/08/18 07:34:58;;;;;;;4.93;1.75;;;;;;;11.81;77.80;91058.88;5014314;28;20108;-87
2021/08/18 07:37:27;;;;;;;2.45;1.05;;;;;;;11.71;78.02;91057.50;5004550;28;20034;-86
2021/08/18 07:39:54;;;;;;;4.30;1.23;;;;;;;11.63;78.89;91070.69;4977787;28;20048;-87
2021/08/18 07:42:23;;;;;;;3.53;1.30;;;;;;;11.76;78.51;91076.63;4993958;28;20539;-87
2021/08/18 07:44:51;;;;;;;2.88;1.20;;;;;;;11.77;79.28;91060.66;5013026;28;20022;-88
2021/08/18 07:47:18;;;;;;;2.85;1.33;;;;;;;11.88;78.90;91066.94;4996153;28;20037;-87
2021/08/18 07:49:47;;;;;;;3.17;1.83;;;;;;;11.91;79.22;91057.69;5010804;28;20032;-87
2021/08/18 07:52:13;;;;;;;2.25;1.25;;;;;;;12.10;78.04;91062.28;4995309;28;20022;-87
2021/08/18 07:54:39;;;;;;;2.65;1.15;;;;;;;12.14;78.37;91065.75;5013575;28;20351;-87
2021/08/18 07:57:05;;;;;;;3.67;0.90;;;;;;;12.44;77.80;91066.94;4997098;28;20029;-87
2021/08/18 07:59:31;;;;;;;1.92;1.00;;;;;;;12.27;76.37;91063.88;5013303;28;20025;-87
2021/08/18 08:01:57;;;;;;;3.22;1.02;;;;;;;12.37;75.88;91066.75;4977604;28;20066;-87
2021/08/18 08:04:23;;;;;;;2.05;0.90;;;;;;;12.52;74.72;91069.72;4994910;28;20025;-87
2021/08/18 08:06:51;;;;;;;2.40;1.20;;;;;;;12.58;76.78;91055.28;5002348;28;20036;-86
2021/08/18 08:09:17;;;;;;;3.63;1.42;;;;;;;12.38;75.85;91057.06;4997141;28;20401;-85
2021/08/18 08:11:43;;;;;;;3.28;1.67;;;;;;;12.20;77.00;91057.34;5013551;28;20021;-86
2021/08/18 08:14:09;;;;;;;3.28;1.30;;;;;;;12.31;76.38;91068.06;4993599;28;20409;-86
2021/08/18 08:16:35;;;;;;;3.47;1.63;;;;;;;12.59;75.29;91068.03;4981083;28;20063;-86
2021/08/18 08:19:01;;;;;;;3.97;1.27;;;;;;;12.46;75.07;91076.28;5008712;28;20032;-86
2021/08/18 08:21:27;;;;;;;2.85;1.30;;;;;;;12.11;76.88;91069.78;4978020;28;20103;-86
2021/08/18 08:23:53;;;;;;;3.20;1.17;;;;;;;12.13;76.70;91061.63;4995550;28;20057;-86
2021/08/18 08:26:18;;;;;;;2.80;1.10;;;;;;;12.11;75.62;91066.41;4991069;28;20068;-86
2021/08/18 08:28:45;;;;;;;3.33;1.10;;;;;;;12.23;75.82;91063.78;5013459;28;20060;-87
2021/08/18 08:31:17;;;;;;;3.80;0.90;;;;;;;12.55;75.64;91066.44;4992902;28;20061;-86
2021/08/18 08:33:46;;;;;;;1.92;1.00;;;;;;;12.85;74.66;91067.53;4995611;28;20022;-88
2021/08/18 08:36:15;;;;;;;2.10;1.10;;;;;;;13.08;73.35;91064.34;4978149;28;20771;-87
2021/08/18 08:38:48;;;;;;;3.63;1.23;;;;;;;13.23;73.10;91075.91;4993580;28;20026;-87
2021/08/18 08:41:15;;;;;;;2.55;1.08;;;;;;;13.29;72.08;91072.72;4969879;28;20018;-87
2021/08/18 08:43:41;;;;;;;1.70;1.20;;;;;;;13.20;71.87;91073.94;4995494;28;20028;-87
2021/08/18 08:46:08;;;;;;;2.30;0.98;;;;;;;13.29;73.38;91079.81;4987849;28;20398;-86
2021/08/18 08:48:34;;;;;;;2.60;1.00;;;;;;;13.27;71.88;91077.50;5011414;28;20057;-87
2021/08/18 08:51:01;;;;;;;2.80;0.90;;;;;;;13.32;71.85;91071.25;5003783;28;20482;-87
2021/08/18 08:53:30;;;;;;;2.70;1.30;;;;;;;13.27;71.40;91063.66;4981115;28;20389;-86
2021/08/18 08:55:57;;;;;;;2.33;1.00;;;;;;;13.17;72.02;91072.75;4997102;28;20398;-87
2021/08/18 08:58:24;;;;;;;1.58;1.00;;;;;;;13.42;71.63;91075.22;4986479;28;20022;-87
2021/08/18 09:00:50;;;;;;;3.20;1.10;;;;;;;13.49;70.40;91072.75;4983216;28;20108;-87
2021/08/18 09:03:17;;;;;;;4.38;1.95;;;;;;;13.45;70.52;91064.81;5034258;28;20115;-87
2021/08/18 09:05:44;;;;;;;1.85;0.90;;;;;;;13.50;70.92;91063.78;5000496;28;20029;-87
2021/08/18 09:08:15;;;;;;;3.88;1.20;;;;;;;13.69;70.18;91063.84;5001007;28;20014;-87
2021/08/18 09:10:41;;;;;;;2.30;1.00;;;;;;;14.05;68.89;91069.78;5001025;28;20025;-87
2021/08/18 09:13:16;;;;;;;3.25;1.20;;;;;;;14.13;68.53;91066.19;5000682;28;20504;-87
2021/08/18 09:16:02;;;;;;;1.77;1.08;;;;;;;14.27;68.01;91063.84;5000626;28;20029;-87
2021/08/18 09:18:41;;;;;;;1.98;0.93;;;;;;;14.19;68.57;91075.31;4995146;28;20037;-87
2021/08/18 09:21:25;;;;;;;1.95;0.98;;;;;;;14.51;68.29;91068.06;5028529;28;20714;-87
2021/08/18 09:23:50;;;;;;;2.10;1.13;;;;;;;14.42;67.82;91067.50;5016010;28;20028;-87
2021/08/18 09:26:20;;;;;;;3.13;1.42;;;;;;;14.35;66.99;91065.50;4983819;28;20025;-86
2021/08/18 09:28:46;;;;;;;2.33;1.00;;;;;;;14.52;67.05;91066.19;4983641;28;20025;-86
2021/08/18 09:31:11;;;;;;;3.03;1.58;;;;;;;14.34;67.44;91066.59;4999429;28;20079;-86
2021/08/18 09:33:36;;;;;;;2.47;1.00;;;;;;;14.42;66.49;91070.13;4999624;28;20033;-87
2021/08/18 09:36:02;;;;;;;2.10;1.23;;;;;;;14.44;67.89;91072.38;4999359;28;20025;-87
2021/08/18 09:38:28;;;;;;;2.53;1.30;;;;;;;14.40;66.85;91079.44;4999029;28;20025;-87
2021/08/18 09:40:54;;;;;;;2.75;1.48;;;;;;;14.22;67.25;91074.63;4998697;28;20175;-87
2021/08/18 09:43:25;;;;;;;3.42;1.60;;;;;;;14.33;67.28;91072.19;5015759;28;20496;-87
2021/08/18 09:45:57;;;;;;;2.53;1.38;;;;;;;14.44;67.69;91070.53;5016412;28;20037;-86
2021/08/18 09:48:26;;;;;;;3.83;2.35;;;;;;;14.56;66.66;91067.78;5112871;22;20493;-84
2021/08/18 09:51:00;;;;;;;4.90;1.60;;;;;;;14.73;67.01;91066.56;5010785;28;20032;-85
2021/08/18 09:53:37;;;;;;;2.78;1.38;;;;;;;14.68;65.54;91058.97;5003785;28;20033;-83
2021/08/18 09:56:19;;;;;;;2.92;1.40;;;;;;;14.87;66.58;91075.78;5002751;28;20108;-84
2021/08/18 09:58:57;;;;;;;3.45;1.30;;;;;;;14.82;66.06;91069.72;5005352;28;20052;-87
2021/08/18 10:01:24;;;;;;;2.58;1.10;;;;;;;14.96;65.26;91074.44;5054836;28;20028;-85
2021/08/18 10:03:54;;;;;;;2.95;1.27;;;;;;;15.00;65.83;91069.25;5022674;28;20029;-85
2021/08/18 10:06:23;;;;;;;2.65;1.30;;;;;;;15.16;64.18;91064.66;5022040;28;20408;-86
2021/08/18 10:08:56;;;;;;;1.45;0.90;;;;;;;15.39;63.86;91067.22;5055308;28;20025;-86
2021/08/18 10:11:26;;;;;;;2.90;1.30;;;;;;;15.43;63.46;91069.91;5025014;28;20029;-86
2021/08/18 10:13:53;;;;;;;2.97;1.30;;;;;;;15.36;63.56;91072.41;5038314;28;20025;-87
2021/08/18 10:16:19;;;;;;;1.85;1.20;;;;;;;15.34;63.40;91066.78;5038756;28;20075;-86
2021/08/18 10:18:45;;;;;;;2.38;1.35;;;;;;;15.40;64.84;91065.34;5022022;28;20029;-86
2021/08/18 10:21:18;;;;;;;2.05;1.27;;;;;;;15.16;63.70;91062.03;5038763;28;20079;-86
2021/08/18 10:23:58;;;;;;;2.42;1.10;;;;;;;15.41;64.42;91065.00;5007865;28;20078;-86
2021/08/18 10:26:35;;;;;;;3.13;1.50;;;;;;;15.29;65.82;91070.44;5034802;28;20035;-86
2021/08/18 10:29:05;;;;;;;2.92;1.50;;;;;;;15.24;64.64;91060.25;5077389;28;20020;-86
2021/08/18 10:31:43;;;;;;;2.92;1.42;;;;;;;15.29;64.54;91065.19;5055002;28;20024;-85
2021/08/18 10:34:43;;;;;;;2.97;1.60;;;;;;;15.44;64.38;91060.91;5064889;28;20087;-83
2021/08/18 10:37:12;;;;;;;3.47;1.40;;;;;;;15.56;63.75;91062.59;5040395;28;20048;-83
2021/08/18 10:39:50;;;;;;;4.88;1.38;;;;;;;15.83;63.04;91060.72;5053057;28;20063;-84
2021/08/18 10:42:17;;;;;;;2.53;1.38;;;;;;;15.70;64.06;91058.31;5004722;28;20108;-84
2021/08/18 10:44:50;;;;;;;3.03;1.40;;;;;;;15.72;63.21;91056.09;5034780;28;20036;-86
2021/08/18 10:47:23;;;;;;;1.98;1.27;;;;;;;15.67;62.34;91061.63;5001978;28;20028;-86
2021/08/18 10:49:50;;;;;;;2.50;1.50;;;;;;;15.76;62.04;91056.91;5031878;28;20056;-84
2021/08/18 10:52:29;;;;;;;2.20;1.45;;;;;;;15.83;62.03;91050.19;5014342;28;20474;-84
2021/08/18 10:55:08;;;;;;;4.25;1.70;;;;;;;15.68;62.89;91051.88;5032325;28;20389;-84
2021/08/18 10:57:50;;;;;;;3.60;1.85;;;;;;;15.69;63.05;91051.56;5014321;28;20017;-84
2021/08/18 11:00:22;;;;;;;3.65;2.05;;;;;;;15.78;63.06;91048.66;5014612;28;20036;-85
2021/08/18 11:02:58;;;;;;;3.38;1.98;;;;;;;15.96;63.07;91044.38;5014408;28;20029;-85
2021/08/18 11:05:37;;;;;;;3.35;1.70;;;;;;;15.92;62.44;91046.19;4998075;28;20032;-84
2021/08/18 11:08:13;;;;;;;2.53;1.90;;;;;;;15.99;63.57;91042.91;5023843;28;20070;-85
2021/08/18 11:10:41;;;;;;;4.50;2.00;;;;;;;16.01;63.96;91045.94;5054292;28;20029;-83
2021/08/18 11:13:08;;;;;;;6.00;2.15;;;;;;;16.13;64.05;91043.06;5054273;28;20112;-85
2021/08/18 11:15:33;;;;;;;4.25;2.22;;;;;;;15.97;63.92;91050.38;5054398;28;20032;-85
2021/08/18 11:17:59;;;;;;;4.80;2.45;;;;;;;15.93;63.59;91049.56;5034319;28;20032;-83
2021/08/18 11:20:27;;;;;;;7.07;2.17;;;;;;;16.09;63.87;91047.53;5034142;28;20020;-85
2021/08/18 11:22:53;;;;;;;3.42;2.42;;;;;;;16.13;63.38;91045.69;5034718;28;20103;-85
2021/08/18 11:25:19;;;;;;;3.90;2.22;;;;;;;16.16;64.16;91038.97;5003532;28;20021;-84
2021/08/18 11:27:48;;;;;;;4.38;2.28;;;;;;;16.29;64.42;91042.88;5038858;28;20070;-84
2021/08/18 11:30:14;;;;;;;11.07;2.65;;;;;;;16.01;63.50;91051.94;5037427;28;20081;-85
2021/08/18 11:32:39;;;;;;;5.57;2.92;;;;;;;15.84;65.11;91054.34;5054590;28;20032;-84
2021/08/18 11:35:05;;;;;;;5.35;2.78;;;;;;;15.72;64.43;91048.22;5036684;28;20021;-84
2021/08/18 11:37:32;;;;;;;5.93;2.80;;;;;;;15.85;63.69;91048.72;5017526;28;20508;-84
2021/08/18 11:39:59;;;;;;;5.45;2.70;;;;;;;16.11;65.45;91040.03;5017946;28;20088;-84
2021/08/18 11:42:24;;;;;;;6.43;2.50;;;;;;;16.18;63.92;91041.97;5001851;28;20024;-85
2021/08/18 11:45:00;;;;;;;5.22;2.90;;;;;;;16.38;64.44;91043.34;5034744;28;20066;-85
2021/08/18 11:47:28;;;;;;;6.47;3.33;;;;;;;16.31;63.34;91042.50;5033955;28;20028;-85
2021/08/18 11:49:53;;;;;;;5.47;2.55;;;;;;;16.09;62.87;91037.00;5015817;28;20661;-85
2021/08/18 11:52:20;;;;;;;9.23;2.83;;;;;;;16.13;62.44;91032.56;4998010;28;20040;-85
2021/08/18 11:54:52;;;;;;;4.78;2.50;;;;;;;16.42;62.33;91046.75;4984920;28;20508;-84
2021/08/18 11:57:18;;;;;;;18.55;12.40;;;;;;;16.37;63.16;91035.81;5017231;28;20044;-84